Terminal Aerodrome Forecast
Issued by NWS

Home | Current Version | Previous Version | Text Only | Print | Product List | Glossary On
Versions: 1 2 3 4 5 6 7 8 9 10 11 12 13 14
000
FTUS43 KDVN 300500
TAFCID
TAF
KCID 300520Z 3006/0106 03010KT P6SM OVC010
     FM301600 07010KT P6SM BKN020
     FM302000 10010KT P6SM SCT025
      AMD NOT SKED=

USA.gov is the U.S. government's official web portal to all federal, state and local government web resources and services.